sensor_id;sensor_type;location;lat;lon;timestamp;P1;durP1;ratioP1;P2;durP2;ratioP2
24619;SDS011;12763;55.802;37.404;2022-08-19T00:01:34;6.70;;;4.38;;
24619;SDS011;12763;55.802;37.404;2022-08-19T00:04:03;8.50;;;4.38;;
24619;SDS011;12763;55.802;37.404;2022-08-19T00:06:35;7.47;;;4.45;;
24619;SDS011;12763;55.802;37.404;2022-08-19T00:09:03;6.90;;;4.53;;
24619;SDS011;12763;55.802;37.404;2022-08-19T00:11:31;8.45;;;5.53;;
24619;SDS011;12763;55.802;37.404;2022-08-19T00:13:58;14.60;;;5.78;;
24619;SDS011;12763;55.802;37.404;2022-08-19T00:16:25;12.27;;;5.22;;
24619;SDS011;12763;55.802;37.404;2022-08-19T00:18:53;11.05;;;5.32;;
24619;SDS011;12763;55.802;37.404;2022-08-19T00:21:23;9.30;;;5.55;;
24619;SDS011;12763;55.802;37.404;2022-08-19T00:23:52;12.35;;;5.78;;
24619;SDS011;12763;55.802;37.404;2022-08-19T00:26:19;14.80;;;5.25;;
24619;SDS011;12763;55.802;37.404;2022-08-19T00:28:46;14.25;;;6.10;;
24619;SDS011;12763;55.802;37.404;2022-08-19T00:31:13;15.98;;;5.70;;
24619;SDS011;12763;55.802;37.404;2022-08-19T00:33:42;12.38;;;5.78;;
24619;SDS011;12763;55.802;37.404;2022-08-19T00:36:09;17.83;;;6.35;;
24619;SDS011;12763;55.802;37.404;2022-08-19T00:38:37;12.63;;;5.97;;
24619;SDS011;12763;55.802;37.404;2022-08-19T00:41:07;15.88;;;6.30;;
24619;SDS011;12763;55.802;37.404;2022-08-19T00:43:34;8.60;;;5.78;;
24619;SDS011;12763;55.802;37.404;2022-08-19T00:46:00;16.42;;;7.22;;
24619;SDS011;12763;55.802;37.404;2022-08-19T00:48:30;12.52;;;6.15;;
24619;SDS011;12763;55.802;37.404;2022-08-19T00:50:59;13.05;;;6.63;;
24619;SDS011;12763;55.802;37.404;2022-08-19T00:53:27;11.45;;;6.47;;
24619;SDS011;12763;55.802;37.404;2022-08-19T00:55:58;11.68;;;6.50;;
24619;SDS011;12763;55.802;37.404;2022-08-19T00:58:26;9.25;;;6.03;;
24619;SDS011;12763;55.802;37.404;2022-08-19T01:00:57;11.82;;;6.30;;
24619;SDS011;12763;55.802;37.404;2022-08-19T01:03:24;15.75;;;6.38;;
24619;SDS011;12763;55.802;37.404;2022-08-19T01:05:51;11.82;;;6.38;;
24619;SDS011;12763;55.802;37.404;2022-08-19T01:08:20;13.40;;;6.53;;
24619;SDS011;12763;55.802;37.404;2022-08-19T01:10:47;15.98;;;6.88;;
24619;SDS011;12763;55.802;37.404;2022-08-19T01:13:22;13.95;;;6.93;;
24619;SDS011;12763;55.802;37.404;2022-08-19T01:15:54;11.48;;;6.63;;
24619;SDS011;12763;55.802;37.404;2022-08-19T01:18:23;11.90;;;6.97;;
24619;SDS011;12763;55.802;37.404;2022-08-19T01:20:50;17.40;;;6.95;;
24619;SDS011;12763;55.802;37.404;2022-08-19T01:23:19;15.55;;;6.78;;
24619;SDS011;12763;55.802;37.404;2022-08-19T01:25:49;13.27;;;6.80;;
24619;SDS011;12763;55.802;37.404;2022-08-19T01:28:27;15.20;;;7.05;;
24619;SDS011;12763;55.802;37.404;2022-08-19T01:30:54;18.13;;;7.97;;
24619;SDS011;12763;55.802;37.404;2022-08-19T01:33:21;17.55;;;8.10;;
24619;SDS011;12763;55.802;37.404;2022-08-19T01:35:48;13.23;;;7.18;;
24619;SDS011;12763;55.802;37.404;2022-08-19T01:38:24;13.73;;;7.63;;
24619;SDS011;12763;55.802;37.404;2022-08-19T01:40:52;18.73;;;7.77;;
24619;SDS011;12763;55.802;37.404;2022-08-19T01:43:18;15.55;;;7.70;;
24619;SDS011;12763;55.802;37.404;2022-08-19T01:45:51;15.75;;;7.25;;
24619;SDS011;12763;55.802;37.404;2022-08-19T01:48:21;14.00;;;7.68;;
24619;SDS011;12763;55.802;37.404;2022-08-19T01:50:48;17.77;;;7.70;;
24619;SDS011;12763;55.802;37.404;2022-08-19T01:53:16;10.05;;;6.78;;
24619;SDS011;12763;55.802;37.404;2022-08-19T01:55:47;15.10;;;7.03;;
24619;SDS011;12763;55.802;37.404;2022-08-19T01:58:15;15.32;;;7.72;;
24619;SDS011;12763;55.802;37.404;2022-08-19T02:00:46;16.75;;;7.45;;
24619;SDS011;12763;55.802;37.404;2022-08-19T02:03:12;17.70;;;7.80;;
24619;SDS011;12763;55.802;37.404;2022-08-19T02:05:40;13.45;;;7.63;;
24619;SDS011;12763;55.802;37.404;2022-08-19T02:08:07;20.73;;;8.10;;
24619;SDS011;12763;55.802;37.404;2022-08-19T02:10:39;15.60;;;7.60;;
24619;SDS011;12763;55.802;37.404;2022-08-19T02:13:08;14.93;;;7.85;;
24619;SDS011;12763;55.802;37.404;2022-08-19T02:15:58;14.45;;;7.28;;
24619;SDS011;12763;55.802;37.404;2022-08-19T02:18:34;14.07;;;7.63;;
24619;SDS011;12763;55.802;37.404;2022-08-19T02:21:03;12.88;;;7.80;;
24619;SDS011;12763;55.802;37.404;2022-08-19T02:23:30;18.38;;;6.95;;
24619;SDS011;12763;55.802;37.404;2022-08-19T02:26:00;16.20;;;7.68;;
24619;SDS011;12763;55.802;37.404;2022-08-19T02:28:26;17.33;;;8.90;;
24619;SDS011;12763;55.802;37.404;2022-08-19T02:30:53;16.35;;;8.63;;
24619;SDS011;12763;55.802;37.404;2022-08-19T02:33:20;15.30;;;8.23;;
24619;SDS011;12763;55.802;37.404;2022-08-19T02:35:47;17.67;;;7.82;;
24619;SDS011;12763;55.802;37.404;2022-08-19T02:38:13;12.73;;;8.23;;
24619;SDS011;12763;55.802;37.404;2022-08-19T02:40:57;22.67;;;8.77;;
24619;SDS011;12763;55.802;37.404;2022-08-19T02:43:29;18.77;;;9.02;;
24619;SDS011;12763;55.802;37.404;2022-08-19T02:46:01;16.13;;;8.10;;
24619;SDS011;12763;55.802;37.404;2022-08-19T02:48:28;16.38;;;7.65;;
24619;SDS011;12763;55.802;37.404;2022-08-19T02:50:55;15.63;;;8.68;;
24619;SDS011;12763;55.802;37.404;2022-08-19T02:53:23;19.85;;;7.97;;
24619;SDS011;12763;55.802;37.404;2022-08-19T02:55:51;22.45;;;8.60;;
24619;SDS011;12763;55.802;37.404;2022-08-19T02:58:19;14.80;;;8.60;;
24619;SDS011;12763;55.802;37.404;2022-08-19T03:00:50;18.33;;;8.07;;
24619;SDS011;12763;55.802;37.404;2022-08-19T03:03:20;15.77;;;7.47;;
24619;SDS011;12763;55.802;37.404;2022-08-19T03:05:47;14.43;;;7.68;;
24619;SDS011;12763;55.802;37.404;2022-08-19T03:08:14;14.90;;;7.47;;
24619;SDS011;12763;55.802;37.404;2022-08-19T03:10:45;15.20;;;7.53;;
24619;SDS011;12763;55.802;37.404;2022-08-19T03:13:14;16.50;;;6.93;;
24619;SDS011;12763;55.802;37.404;2022-08-19T03:15:46;11.75;;;7.72;;
24619;SDS011;12763;55.802;37.404;2022-08-19T03:18:16;20.15;;;8.43;;
24619;SDS011;12763;55.802;37.404;2022-08-19T03:20:43;13.02;;;7.13;;
24619;SDS011;12763;55.802;37.404;2022-08-19T03:23:14;15.57;;;7.60;;
24619;SDS011;12763;55.802;37.404;2022-08-19T03:25:43;15.50;;;7.57;;
24619;SDS011;12763;55.802;37.404;2022-08-19T03:28:14;21.38;;;7.38;;
24619;SDS011;12763;55.802;37.404;2022-08-19T03:30:41;16.27;;;7.15;;
24619;SDS011;12763;55.802;37.404;2022-08-19T03:33:13;14.05;;;7.18;;
24619;SDS011;12763;55.802;37.404;2022-08-19T03:35:42;13.50;;;7.47;;
24619;SDS011;12763;55.802;37.404;2022-08-19T03:38:13;15.50;;;7.13;;
24619;SDS011;12763;55.802;37.404;2022-08-19T03:40:40;15.63;;;7.15;;
24619;SDS011;12763;55.802;37.404;2022-08-19T03:43:11;16.67;;;7.18;;
24619;SDS011;12763;55.802;37.404;2022-08-19T03:45:38;15.13;;;7.18;;
24619;SDS011;12763;55.802;37.404;2022-08-19T03:48:05;20.17;;;8.73;;
24619;SDS011;12763;55.802;37.404;2022-08-19T03:50:31;13.50;;;7.00;;
24619;SDS011;12763;55.802;37.404;2022-08-19T03:53:00;13.75;;;7.43;;
24619;SDS011;12763;55.802;37.404;2022-08-19T03:55:26;15.52;;;7.63;;
24619;SDS011;12763;55.802;37.404;2022-08-19T03:57:55;18.60;;;7.00;;
24619;SDS011;12763;55.802;37.404;2022-08-19T04:00:25;15.00;;;6.40;;
24619;SDS011;12763;55.802;37.404;2022-08-19T04:02:51;16.67;;;6.07;;
24619;SDS011;12763;55.802;37.404;2022-08-19T04:05:18;14.05;;;6.85;;
24619;SDS011;12763;55.802;37.404;2022-08-19T04:07:44;14.80;;;8.02;;
24619;SDS011;12763;55.802;37.404;2022-08-19T04:10:11;15.00;;;7.07;;
24619;SDS011;12763;55.802;37.404;2022-08-19T04:12:40;13.82;;;6.68;;
24619;SDS011;12763;55.802;37.404;2022-08-19T04:15:07;24.67;;;7.55;;
24619;SDS011;12763;55.802;37.404;2022-08-19T04:17:34;14.13;;;7.32;;
24619;SDS011;12763;55.802;37.404;2022-08-19T04:20:00;11.65;;;7.07;;
24619;SDS011;12763;55.802;37.404;2022-08-19T04:22:29;15.02;;;7.50;;
24619;SDS011;12763;55.802;37.404;2022-08-19T04:24:55;18.90;;;6.68;;
24619;SDS011;12763;55.802;37.404;2022-08-19T04:27:22;13.90;;;7.18;;
24619;SDS011;12763;55.802;37.404;2022-08-19T04:29:48;13.73;;;6.75;;
24619;SDS011;12763;55.802;37.404;2022-08-19T04:32:22;14.73;;;7.43;;
24619;SDS011;12763;55.802;37.404;2022-08-19T04:34:48;15.68;;;7.03;;
24619;SDS011;12763;55.802;37.404;2022-08-19T04:37:15;15.60;;;7.57;;
24619;SDS011;12763;55.802;37.404;2022-08-19T04:39:41;12.57;;;7.30;;
24619;SDS011;12763;55.802;37.404;2022-08-19T04:42:26;18.95;;;7.90;;
24619;SDS011;12763;55.802;37.404;2022-08-19T04:45:05;16.55;;;8.68;;
24619;SDS011;12763;55.802;37.404;2022-08-19T04:47:32;17.17;;;7.68;;
24619;SDS011;12763;55.802;37.404;2022-08-19T04:49:59;16.98;;;6.40;;
24619;SDS011;12763;55.802;37.404;2022-08-19T04:52:25;15.23;;;7.65;;
24619;SDS011;12763;55.802;37.404;2022-08-19T04:55:15;12.23;;;6.95;;
24619;SDS011;12763;55.802;37.404;2022-08-19T04:57:42;15.18;;;7.22;;
24619;SDS011;12763;55.802;37.404;2022-08-19T05:00:09;11.90;;;6.88;;
24619;SDS011;12763;55.802;37.404;2022-08-19T05:02:44;16.27;;;7.30;;
24619;SDS011;12763;55.802;37.404;2022-08-19T05:05:11;14.68;;;7.35;;
24619;SDS011;12763;55.802;37.404;2022-08-19T05:07:37;15.38;;;6.90;;
24619;SDS011;12763;55.802;37.404;2022-08-19T05:10:05;14.13;;;6.38;;
24619;SDS011;12763;55.802;37.404;2022-08-19T05:12:33;15.98;;;6.60;;
24619;SDS011;12763;55.802;37.404;2022-08-19T05:15:02;12.57;;;6.47;;
24619;SDS011;12763;55.802;37.404;2022-08-19T05:17:29;12.52;;;6.05;;
24619;SDS011;12763;55.802;37.404;2022-08-19T05:19:59;12.30;;;5.88;;
24619;SDS011;12763;55.802;37.404;2022-08-19T05:22:46;13.23;;;5.80;;
24619;SDS011;12763;55.802;37.404;2022-08-19T05:25:14;13.60;;;5.80;;
24619;SDS011;12763;55.802;37.404;2022-08-19T05:27:44;8.65;;;5.95;;
24619;SDS011;12763;55.802;37.404;2022-08-19T05:30:15;15.05;;;6.00;;
24619;SDS011;12763;55.802;37.404;2022-08-19T05:32:45;16.20;;;6.10;;
24619;SDS011;12763;55.802;37.404;2022-08-19T05:35:11;12.52;;;5.43;;
24619;SDS011;12763;55.802;37.404;2022-08-19T05:37:38;8.10;;;5.25;;
24619;SDS011;12763;55.802;37.404;2022-08-19T05:40:08;14.80;;;5.97;;
24619;SDS011;12763;55.802;37.404;2022-08-19T05:42:38;15.30;;;5.65;;
24619;SDS011;12763;55.802;37.404;2022-08-19T05:45:06;11.43;;;5.32;;
24619;SDS011;12763;55.802;37.404;2022-08-19T05:47:33;9.73;;;5.65;;
24619;SDS011;12763;55.802;37.404;2022-08-19T05:50:01;15.90;;;5.93;;
24619;SDS011;12763;55.802;37.404;2022-08-19T05:52:29;15.77;;;6.18;;
24619;SDS011;12763;55.802;37.404;2022-08-19T05:54:55;41.53;;;6.15;;
24619;SDS011;12763;55.802;37.404;2022-08-19T05:57:22;9.45;;;4.97;;
24619;SDS011;12763;55.802;37.404;2022-08-19T05:59:49;10.35;;;5.05;;
24619;SDS011;12763;55.802;37.404;2022-08-19T06:02:16;8.95;;;4.80;;
24619;SDS011;12763;55.802;37.404;2022-08-19T06:04:43;16.95;;;5.32;;
24619;SDS011;12763;55.802;37.404;2022-08-19T06:07:12;15.25;;;4.93;;
24619;SDS011;12763;55.802;37.404;2022-08-19T06:09:38;14.88;;;5.22;;
24619;SDS011;12763;55.802;37.404;2022-08-19T06:12:06;6.75;;;4.90;;
24619;SDS011;12763;55.802;37.404;2022-08-19T06:14:33;8.32;;;5.13;;
24619;SDS011;12763;55.802;37.404;2022-08-19T06:17:03;12.38;;;5.75;;
24619;SDS011;12763;55.802;37.404;2022-08-19T06:19:30;12.27;;;5.22;;
24619;SDS011;12763;55.802;37.404;2022-08-19T06:21:56;10.38;;;5.40;;
24619;SDS011;12763;55.802;37.404;2022-08-19T06:24:27;13.43;;;5.43;;
24619;SDS011;12763;55.802;37.404;2022-08-19T06:26:58;10.55;;;4.85;;
24619;SDS011;12763;55.802;37.404;2022-08-19T06:29:25;13.02;;;4.97;;
24619;SDS011;12763;55.802;37.404;2022-08-19T06:31:57;12.30;;;5.22;;
24619;SDS011;12763;55.802;37.404;2022-08-19T06:34:27;10.65;;;4.97;;
24619;SDS011;12763;55.802;37.404;2022-08-19T06:36:59;11.93;;;4.90;;
24619;SDS011;12763;55.802;37.404;2022-08-19T06:39:27;10.45;;;4.80;;
24619;SDS011;12763;55.802;37.404;2022-08-19T06:42:00;21.35;;;5.78;;
24619;SDS011;12763;55.802;37.404;2022-08-19T06:44:33;7.70;;;5.45;;
24619;SDS011;12763;55.802;37.404;2022-08-19T06:47:05;14.80;;;5.18;;
24619;SDS011;12763;55.802;37.404;2022-08-19T06:49:35;16.65;;;4.93;;
24619;SDS011;12763;55.802;37.404;2022-08-19T06:52:01;10.50;;;5.07;;
24619;SDS011;12763;55.802;37.404;2022-08-19T06:54:28;18.63;;;5.80;;
24619;SDS011;12763;55.802;37.404;2022-08-19T06:56:55;7.47;;;4.78;;
24619;SDS011;12763;55.802;37.404;2022-08-19T06:59:23;14.15;;;5.53;;
24619;SDS011;12763;55.802;37.404;2022-08-19T07:01:54;12.23;;;4.50;;
24619;SDS011;12763;55.802;37.404;2022-08-19T07:04:23;9.98;;;5.03;;
24619;SDS011;12763;55.802;37.404;2022-08-19T07:06:59;9.50;;;4.78;;
24619;SDS011;12763;55.802;37.404;2022-08-19T07:09:28;12.93;;;5.25;;
24619;SDS011;12763;55.802;37.404;2022-08-19T07:11:55;7.97;;;4.57;;
24619;SDS011;12763;55.802;37.404;2022-08-19T07:14:23;15.40;;;5.57;;
24619;SDS011;12763;55.802;37.404;2022-08-19T07:16:52;13.63;;;5.05;;
24619;SDS011;12763;55.802;37.404;2022-08-19T07:19:20;14.98;;;5.40;;
24619;SDS011;12763;55.802;37.404;2022-08-19T07:21:49;9.45;;;4.70;;
24619;SDS011;12763;55.802;37.404;2022-08-19T07:24:18;14.15;;;4.70;;
24619;SDS011;12763;55.802;37.404;2022-08-19T07:26:52;12.30;;;5.13;;
24619;SDS011;12763;55.802;37.404;2022-08-19T07:29:21;13.00;;;6.13;;
24619;SDS011;12763;55.802;37.404;2022-08-19T07:31:51;11.77;;;4.80;;
24619;SDS011;12763;55.802;37.404;2022-08-19T07:34:20;13.23;;;5.82;;
24619;SDS011;12763;55.802;37.404;2022-08-19T07:36:46;12.90;;;5.25;;
24619;SDS011;12763;55.802;37.404;2022-08-19T07:39:20;11.82;;;5.03;;
24619;SDS011;12763;55.802;37.404;2022-08-19T07:41:50;10.45;;;5.00;;
24619;SDS011;12763;55.802;37.404;2022-08-19T07:44:18;10.65;;;5.18;;
24619;SDS011;12763;55.802;37.404;2022-08-19T07:46:47;16.25;;;5.72;;
24619;SDS011;12763;55.802;37.404;2022-08-19T07:49:16;10.68;;;4.85;;
24619;SDS011;12763;55.802;37.404;2022-08-19T07:51:45;9.88;;;4.53;;
24619;SDS011;12763;55.802;37.404;2022-08-19T07:54:13;11.27;;;4.80;;
24619;SDS011;12763;55.802;37.404;2022-08-19T07:56:39;17.98;;;4.63;;
24619;SDS011;12763;55.802;37.404;2022-08-19T07:59:06;11.30;;;4.25;;
24619;SDS011;12763;55.802;37.404;2022-08-19T08:01:34;5.78;;;4.22;;
24619;SDS011;12763;55.802;37.404;2022-08-19T08:04:01;24.90;;;4.88;;
24619;SDS011;12763;55.802;37.404;2022-08-19T08:06:46;5.43;;;3.65;;
24619;SDS011;12763;55.802;37.404;2022-08-19T08:09:32;10.18;;;3.70;;
24619;SDS011;12763;55.802;37.404;2022-08-19T08:12:04;7.05;;;3.72;;
24619;SDS011;12763;55.802;37.404;2022-08-19T08:14:37;11.05;;;4.32;;
24619;SDS011;12763;55.802;37.404;2022-08-19T08:17:12;7.80;;;3.90;;
24619;SDS011;12763;55.802;37.404;2022-08-19T08:19:40;12.93;;;4.20;;
24619;SDS011;12763;55.802;37.404;2022-08-19T08:22:07;13.40;;;4.18;;
24619;SDS011;12763;55.802;37.404;2022-08-19T08:24:54;12.00;;;3.80;;
24619;SDS011;12763;55.802;37.404;2022-08-19T08:27:23;9.13;;;3.90;;
24619;SDS011;12763;55.802;37.404;2022-08-19T08:29:50;13.13;;;3.60;;
24619;SDS011;12763;55.802;37.404;2022-08-19T08:32:16;8.18;;;3.90;;
24619;SDS011;12763;55.802;37.404;2022-08-19T08:34:42;7.78;;;3.72;;
24619;SDS011;12763;55.802;37.404;2022-08-19T08:37:08;9.10;;;4.10;;
24619;SDS011;12763;55.802;37.404;2022-08-19T08:39:34;11.48;;;4.95;;
24619;SDS011;12763;55.802;37.404;2022-08-19T08:44:54;12.85;;;4.32;;
24619;SDS011;12763;55.802;37.404;2022-08-19T08:47:30;14.93;;;4.78;;
24619;SDS011;12763;55.802;37.404;2022-08-19T08:50:04;11.23;;;4.82;;
24619;SDS011;12763;55.802;37.404;2022-08-19T08:52:36;9.15;;;5.05;;
24619;SDS011;12763;55.802;37.404;2022-08-19T08:55:11;11.70;;;5.53;;
24619;SDS011;12763;55.802;37.404;2022-08-19T09:00:20;12.45;;;4.70;;
24619;SDS011;12763;55.802;37.404;2022-08-19T09:02:50;6.47;;;4.18;;
24619;SDS011;12763;55.802;37.404;2022-08-19T09:05:16;12.00;;;4.40;;
24619;SDS011;12763;55.802;37.404;2022-08-19T09:16:21;11.25;;;4.75;;
24619;SDS011;12763;55.802;37.404;2022-08-19T09:18:54;10.13;;;4.70;;
24619;SDS011;12763;55.802;37.404;2022-08-19T09:21:23;11.25;;;5.00;;
24619;SDS011;12763;55.802;37.404;2022-08-19T09:23:52;9.35;;;4.53;;
24619;SDS011;12763;55.802;37.404;2022-08-19T09:26:20;14.48;;;5.20;;
24619;SDS011;12763;55.802;37.404;2022-08-19T09:28:49;11.20;;;5.10;;
24619;SDS011;12763;55.802;37.404;2022-08-19T09:31:21;8.85;;;4.07;;
24619;SDS011;12763;55.802;37.404;2022-08-19T09:33:49;7.05;;;4.22;;
24619;SDS011;12763;55.802;37.404;2022-08-19T09:36:20;12.55;;;4.97;;
24619;SDS011;12763;55.802;37.404;2022-08-19T09:38:47;8.30;;;4.32;;
24619;SDS011;12763;55.802;37.404;2022-08-19T09:41:15;7.60;;;4.65;;
24619;SDS011;12763;55.802;37.404;2022-08-19T09:43:45;11.77;;;5.10;;
24619;SDS011;12763;55.802;37.404;2022-08-19T09:46:18;11.05;;;5.20;;
24619;SDS011;12763;55.802;37.404;2022-08-19T09:48:47;10.05;;;5.00;;
24619;SDS011;12763;55.802;37.404;2022-08-19T09:51:15;9.50;;;5.30;;
24619;SDS011;12763;55.802;37.404;2022-08-19T09:53:44;11.25;;;5.60;;
24619;SDS011;12763;55.802;37.404;2022-08-19T09:56:11;12.70;;;4.30;;
24619;SDS011;12763;55.802;37.404;2022-08-19T09:58:39;21.92;;;5.20;;
24619;SDS011;12763;55.802;37.404;2022-08-19T10:01:06;14.38;;;5.07;;
24619;SDS011;12763;55.802;37.404;2022-08-19T10:03:33;11.73;;;4.57;;
24619;SDS011;12763;55.802;37.404;2022-08-19T10:06:02;6.28;;;3.95;;
24619;SDS011;12763;55.802;37.404;2022-08-19T10:08:31;10.35;;;4.68;;
24619;SDS011;12763;55.802;37.404;2022-08-19T10:11:01;16.08;;;4.80;;
24619;SDS011;12763;55.802;37.404;2022-08-19T10:13:30;9.60;;;4.03;;
24619;SDS011;12763;55.802;37.404;2022-08-19T10:16:05;13.27;;;4.80;;
24619;SDS011;12763;55.802;37.404;2022-08-19T10:18:34;10.82;;;4.85;;
24619;SDS011;12763;55.802;37.404;2022-08-19T10:21:05;9.90;;;4.65;;
24619;SDS011;12763;55.802;37.404;2022-08-19T10:23:39;9.50;;;4.63;;
24619;SDS011;12763;55.802;37.404;2022-08-19T10:26:11;15.95;;;4.75;;
24619;SDS011;12763;55.802;37.404;2022-08-19T10:28:39;17.48;;;6.10;;
24619;SDS011;12763;55.802;37.404;2022-08-19T10:31:07;8.52;;;5.10;;
24619;SDS011;12763;55.802;37.404;2022-08-19T10:33:36;13.68;;;5.22;;
24619;SDS011;12763;55.802;37.404;2022-08-19T10:36:04;11.95;;;4.47;;
24619;SDS011;12763;55.802;37.404;2022-08-19T10:38:33;11.63;;;5.65;;
24619;SDS011;12763;55.802;37.404;2022-08-19T10:41:10;11.40;;;4.65;;
24619;SDS011;12763;55.802;37.404;2022-08-19T10:43:38;10.18;;;5.25;;
24619;SDS011;12763;55.802;37.404;2022-08-19T10:46:06;9.10;;;5.10;;
24619;SDS011;12763;55.802;37.404;2022-08-19T10:48:34;11.40;;;5.82;;
24619;SDS011;12763;55.802;37.404;2022-08-19T10:51:04;8.85;;;5.03;;
24619;SDS011;12763;55.802;37.404;2022-08-19T10:53:50;14.38;;;5.35;;
24619;SDS011;12763;55.802;37.404;2022-08-19T10:56:17;12.55;;;5.30;;
24619;SDS011;12763;55.802;37.404;2022-08-19T10:59:02;9.38;;;5.30;;
24619;SDS011;12763;55.802;37.404;2022-08-19T11:01:30;6.50;;;4.75;;
24619;SDS011;12763;55.802;37.404;2022-08-19T11:03:59;13.90;;;5.43;;
24619;SDS011;12763;55.802;37.404;2022-08-19T11:06:25;10.90;;;5.28;;
24619;SDS011;12763;55.802;37.404;2022-08-19T11:08:52;7.38;;;5.20;;
24619;SDS011;12763;55.802;37.404;2022-08-19T11:11:19;12.30;;;5.13;;
24619;SDS011;12763;55.802;37.404;2022-08-19T11:13:49;14.85;;;5.03;;
24619;SDS011;12763;55.802;37.404;2022-08-19T11:16:17;11.82;;;5.28;;
24619;SDS011;12763;55.802;37.404;2022-08-19T11:18:47;8.65;;;4.38;;
24619;SDS011;12763;55.802;37.404;2022-08-19T11:23:43;14.50;;;3.58;;
24619;SDS011;12763;55.802;37.404;2022-08-19T11:26:12;8.05;;;3.97;;
24619;SDS011;12763;55.802;37.404;2022-08-19T11:28:43;5.60;;;2.88;;
24619;SDS011;12763;55.802;37.404;2022-08-19T11:31:13;6.85;;;2.90;;
24619;SDS011;12763;55.802;37.404;2022-08-19T11:33:40;10.20;;;3.20;;
24619;SDS011;12763;55.802;37.404;2022-08-19T11:36:09;12.18;;;3.10;;
24619;SDS011;12763;55.802;37.404;2022-08-19T11:38:36;9.30;;;3.05;;
24619;SDS011;12763;55.802;37.404;2022-08-19T11:41:04;15.30;;;3.85;;
24619;SDS011;12763;55.802;37.404;2022-08-19T11:43:35;10.48;;;2.92;;
24619;SDS011;12763;55.802;37.404;2022-08-19T11:46:09;6.05;;;3.33;;
24619;SDS011;12763;55.802;37.404;2022-08-19T11:48:39;9.32;;;3.38;;
24619;SDS011;12763;55.802;37.404;2022-08-19T11:51:11;11.63;;;3.30;;
24619;SDS011;12763;55.802;37.404;2022-08-19T11:53:39;23.20;;;4.20;;
24619;SDS011;12763;55.802;37.404;2022-08-19T11:56:06;13.55;;;3.60;;
24619;SDS011;12763;55.802;37.404;2022-08-19T11:58:33;9.55;;;2.75;;
24619;SDS011;12763;55.802;37.404;2022-08-19T12:01:00;10.13;;;3.00;;
24619;SDS011;12763;55.802;37.404;2022-08-19T12:03:27;9.23;;;3.78;;
24619;SDS011;12763;55.802;37.404;2022-08-19T12:05:54;5.78;;;3.13;;
24619;SDS011;12763;55.802;37.404;2022-08-19T12:08:20;7.40;;;3.35;;
24619;SDS011;12763;55.802;37.404;2022-08-19T12:10:47;10.50;;;3.10;;
24619;SDS011;12763;55.802;37.404;2022-08-19T12:13:14;7.68;;;3.22;;
24619;SDS011;12763;55.802;37.404;2022-08-19T12:15:44;10.75;;;2.97;;
24619;SDS011;12763;55.802;37.404;2022-08-19T12:18:12;8.45;;;3.60;;
24619;SDS011;12763;55.802;37.404;2022-08-19T12:20:40;11.38;;;3.60;;
24619;SDS011;12763;55.802;37.404;2022-08-19T12:23:07;5.53;;;3.30;;
24619;SDS011;12763;55.802;37.404;2022-08-19T12:25:35;10.25;;;2.72;;
24619;SDS011;12763;55.802;37.404;2022-08-19T12:28:03;7.32;;;3.50;;
24619;SDS011;12763;55.802;37.404;2022-08-19T12:30:29;7.57;;;2.78;;
24619;SDS011;12763;55.802;37.404;2022-08-19T12:32:56;5.45;;;3.22;;
24619;SDS011;12763;55.802;37.404;2022-08-19T12:35:24;5.22;;;2.90;;
24619;SDS011;12763;55.802;37.404;2022-08-19T12:37:50;5.15;;;3.65;;
24619;SDS011;12763;55.802;37.404;2022-08-19T12:40:17;5.80;;;2.88;;
24619;SDS011;12763;55.802;37.404;2022-08-19T12:42:43;9.70;;;3.05;;
24619;SDS011;12763;55.802;37.404;2022-08-19T12:45:10;4.93;;;3.00;;
24619;SDS011;12763;55.802;37.404;2022-08-19T12:47:38;7.75;;;3.05;;
24619;SDS011;12763;55.802;37.404;2022-08-19T12:50:05;4.60;;;2.78;;
24619;SDS011;12763;55.802;37.404;2022-08-19T12:52:34;7.47;;;3.05;;
24619;SDS011;12763;55.802;37.404;2022-08-19T12:55:06;8.55;;;3.22;;
24619;SDS011;12763;55.802;37.404;2022-08-19T12:57:34;10.93;;;4.07;;
24619;SDS011;12763;55.802;37.404;2022-08-19T13:02:39;7.25;;;3.63;;
24619;SDS011;12763;55.802;37.404;2022-08-19T13:05:10;8.82;;;3.67;;
24619;SDS011;12763;55.802;37.404;2022-08-19T13:07:39;7.78;;;3.33;;
24619;SDS011;12763;55.802;37.404;2022-08-19T13:10:10;6.28;;;2.88;;
24619;SDS011;12763;55.802;37.404;2022-08-19T13:12:41;6.50;;;2.95;;
24619;SDS011;12763;55.802;37.404;2022-08-19T13:15:09;8.23;;;3.20;;
24619;SDS011;12763;55.802;37.404;2022-08-19T13:17:39;4.55;;;2.95;;
24619;SDS011;12763;55.802;37.404;2022-08-19T13:20:06;12.90;;;3.88;;
24619;SDS011;12763;55.802;37.404;2022-08-19T13:22:34;12.55;;;3.92;;
24619;SDS011;12763;55.802;37.404;2022-08-19T13:25:03;12.07;;;3.88;;
24619;SDS011;12763;55.802;37.404;2022-08-19T13:27:31;10.07;;;3.70;;
24619;SDS011;12763;55.802;37.404;2022-08-19T13:29:58;4.53;;;3.05;;
24619;SDS011;12763;55.802;37.404;2022-08-19T13:32:43;8.57;;;3.50;;
24619;SDS011;12763;55.802;37.404;2022-08-19T13:35:28;6.53;;;3.45;;
24619;SDS011;12763;55.802;37.404;2022-08-19T13:37:54;10.35;;;3.72;;
24619;SDS011;12763;55.802;37.404;2022-08-19T13:40:21;8.48;;;3.15;;
24619;SDS011;12763;55.802;37.404;2022-08-19T13:42:50;8.60;;;4.10;;
24619;SDS011;12763;55.802;37.404;2022-08-19T13:45:18;6.30;;;4.03;;
24619;SDS011;12763;55.802;37.404;2022-08-19T13:47:46;11.68;;;4.30;;
24619;SDS011;12763;55.802;37.404;2022-08-19T13:50:14;7.90;;;4.15;;
24619;SDS011;12763;55.802;37.404;2022-08-19T13:52:42;10.50;;;3.90;;
24619;SDS011;12763;55.802;37.404;2022-08-19T13:55:10;8.13;;;3.60;;
24619;SDS011;12763;55.802;37.404;2022-08-19T13:57:37;6.57;;;3.53;;
24619;SDS011;12763;55.802;37.404;2022-08-19T14:00:07;6.43;;;3.78;;
24619;SDS011;12763;55.802;37.404;2022-08-19T14:02:37;11.95;;;3.92;;
24619;SDS011;12763;55.802;37.404;2022-08-19T14:05:04;11.18;;;3.65;;
24619;SDS011;12763;55.802;37.404;2022-08-19T14:07:32;7.32;;;3.72;;
24619;SDS011;12763;55.802;37.404;2022-08-19T14:09:58;16.17;;;4.30;;
24619;SDS011;12763;55.802;37.404;2022-08-19T14:12:23;7.38;;;3.67;;
24619;SDS011;12763;55.802;37.404;2022-08-19T14:14:49;6.35;;;3.92;;
24619;SDS011;12763;55.802;37.404;2022-08-19T14:17:15;8.77;;;4.60;;
24619;SDS011;12763;55.802;37.404;2022-08-19T14:19:42;9.93;;;4.28;;
24619;SDS011;12763;55.802;37.404;2022-08-19T14:22:08;8.55;;;4.05;;
24619;SDS011;12763;55.802;37.404;2022-08-19T14:24:36;9.98;;;4.22;;
24619;SDS011;12763;55.802;37.404;2022-08-19T14:27:05;13.30;;;5.45;;
24619;SDS011;12763;55.802;37.404;2022-08-19T14:29:32;12.63;;;4.15;;
24619;SDS011;12763;55.802;37.404;2022-08-19T14:31:59;8.25;;;4.30;;
24619;SDS011;12763;55.802;37.404;2022-08-19T14:34:27;11.50;;;4.18;;
24619;SDS011;12763;55.802;37.404;2022-08-19T14:36:53;10.02;;;3.95;;
24619;SDS011;12763;55.802;37.404;2022-08-19T14:39:19;9.00;;;3.95;;
24619;SDS011;12763;55.802;37.404;2022-08-19T14:41:45;12.80;;;3.95;;
24619;SDS011;12763;55.802;37.404;2022-08-19T14:44:11;12.25;;;4.15;;
24619;SDS011;12763;55.802;37.404;2022-08-19T14:46:40;10.48;;;5.00;;
24619;SDS011;12763;55.802;37.404;2022-08-19T14:49:06;12.90;;;4.70;;
24619;SDS011;12763;55.802;37.404;2022-08-19T14:51:33;9.85;;;4.90;;
24619;SDS011;12763;55.802;37.404;2022-08-19T14:53:59;11.57;;;6.00;;
24619;SDS011;12763;55.802;37.404;2022-08-19T14:56:26;11.65;;;5.63;;